sensor_id;sensor_type;location;lat;lon;timestamp;P1;durP1;ratioP1;P2;durP2;ratioP2
74933;SDS011;63499;53.232;7.492;2022-10-26T00:02:20;2.92;;;1.60;;
74933;SDS011;63499;53.232;7.492;2022-10-26T00:04:46;3.72;;;1.85;;
74933;SDS011;63499;53.232;7.492;2022-10-26T00:07:13;4.53;;;2.10;;
74933;SDS011;63499;53.232;7.492;2022-10-26T00:09:40;2.47;;;2.03;;
74933;SDS011;63499;53.232;7.492;2022-10-26T00:12:06;1.80;;;1.70;;
74933;SDS011;63499;53.232;7.492;2022-10-26T00:14:33;2.70;;;2.00;;
74933;SDS011;63499;53.232;7.492;2022-10-26T00:17:00;5.03;;;2.38;;
74933;SDS011;63499;53.232;7.492;2022-10-26T00:19:26;6.20;;;2.17;;
74933;SDS011;63499;53.232;7.492;2022-10-26T00:21:53;2.92;;;2.05;;
74933;SDS011;63499;53.232;7.492;2022-10-26T00:24:20;5.15;;;2.95;;
74933;SDS011;63499;53.232;7.492;2022-10-26T00:26:59;2.80;;;2.08;;
74933;SDS011;63499;53.232;7.492;2022-10-26T00:29:25;2.97;;;2.05;;
74933;SDS011;63499;53.232;7.492;2022-10-26T00:31:52;2.10;;;1.90;;
74933;SDS011;63499;53.232;7.492;2022-10-26T00:34:18;4.45;;;2.90;;
74933;SDS011;63499;53.232;7.492;2022-10-26T00:36:45;6.07;;;3.92;;
74933;SDS011;63499;53.232;7.492;2022-10-26T00:39:12;3.85;;;2.75;;
74933;SDS011;63499;53.232;7.492;2022-10-26T00:41:39;3.38;;;2.85;;
74933;SDS011;63499;53.232;7.492;2022-10-26T00:46:53;5.55;;;3.53;;
74933;SDS011;63499;53.232;7.492;2022-10-26T00:49:19;7.22;;;3.65;;
74933;SDS011;63499;53.232;7.492;2022-10-26T00:51:53;5.53;;;3.88;;
74933;SDS011;63499;53.232;7.492;2022-10-26T00:54:20;5.97;;;3.55;;
74933;SDS011;63499;53.232;7.492;2022-10-26T00:56:48;8.70;;;4.00;;
74933;SDS011;63499;53.232;7.492;2022-10-26T00:59:15;6.25;;;3.55;;
74933;SDS011;63499;53.232;7.492;2022-10-26T01:01:42;3.90;;;2.75;;
74933;SDS011;63499;53.232;7.492;2022-10-26T01:04:10;6.25;;;3.40;;
74933;SDS011;63499;53.232;7.492;2022-10-26T01:06:37;4.15;;;2.90;;
74933;SDS011;63499;53.232;7.492;2022-10-26T01:09:05;6.30;;;3.85;;
74933;SDS011;63499;53.232;7.492;2022-10-26T01:11:32;5.13;;;3.28;;
74933;SDS011;63499;53.232;7.492;2022-10-26T01:13:59;6.95;;;3.47;;
74933;SDS011;63499;53.232;7.492;2022-10-26T01:31:55;12.70;;;3.30;;
74933;SDS011;63499;53.232;7.492;2022-10-26T01:34:26;15.88;;;3.88;;
74933;SDS011;63499;53.232;7.492;2022-10-26T01:37:00;7.93;;;4.15;;
74933;SDS011;63499;53.232;7.492;2022-10-26T01:42:09;12.13;;;3.97;;
74933;SDS011;63499;53.232;7.492;2022-10-26T01:44:37;5.93;;;3.88;;
74933;SDS011;63499;53.232;7.492;2022-10-26T01:47:08;5.28;;;3.10;;
74933;SDS011;63499;53.232;7.492;2022-10-26T01:49:41;9.88;;;4.53;;
74933;SDS011;63499;53.232;7.492;2022-10-26T01:52:09;4.87;;;3.50;;
74933;SDS011;63499;53.232;7.492;2022-10-26T01:54:36;7.32;;;4.05;;
74933;SDS011;63499;53.232;7.492;2022-10-26T01:57:04;4.75;;;3.55;;
74933;SDS011;63499;53.232;7.492;2022-10-26T02:07:34;5.65;;;3.65;;
74933;SDS011;63499;53.232;7.492;2022-10-26T02:13:12;10.00;;;4.18;;
74933;SDS011;63499;53.232;7.492;2022-10-26T02:18:33;21.60;;;4.68;;
74933;SDS011;63499;53.232;7.492;2022-10-26T02:21:05;6.93;;;3.58;;
74933;SDS011;63499;53.232;7.492;2022-10-26T02:23:33;19.35;;;4.38;;
74933;SDS011;63499;53.232;7.492;2022-10-26T02:26:00;14.80;;;5.53;;
74933;SDS011;63499;53.232;7.492;2022-10-26T02:28:30;6.53;;;4.22;;
74933;SDS011;63499;53.232;7.492;2022-10-26T02:30:59;11.60;;;4.47;;
74933;SDS011;63499;53.232;7.492;2022-10-26T02:33:28;7.97;;;5.10;;
74933;SDS011;63499;53.232;7.492;2022-10-26T02:35:55;14.93;;;4.97;;
74933;SDS011;63499;53.232;7.492;2022-10-26T02:38:25;22.85;;;5.32;;
74933;SDS011;63499;53.232;7.492;2022-10-26T02:40:52;10.70;;;4.30;;
74933;SDS011;63499;53.232;7.492;2022-10-26T02:43:19;10.07;;;4.07;;
74933;SDS011;63499;53.232;7.492;2022-10-26T02:45:56;20.20;;;5.53;;
74933;SDS011;63499;53.232;7.492;2022-10-26T02:48:24;6.88;;;3.80;;
74933;SDS011;63499;53.232;7.492;2022-10-26T02:51:02;18.92;;;4.35;;
74933;SDS011;63499;53.232;7.492;2022-10-26T02:53:41;7.35;;;3.35;;
74933;SDS011;63499;53.232;7.492;2022-10-26T02:56:13;22.58;;;4.72;;
74933;SDS011;63499;53.232;7.492;2022-10-26T02:58:44;10.73;;;4.15;;
74933;SDS011;63499;53.232;7.492;2022-10-26T03:01:12;8.15;;;3.58;;
74933;SDS011;63499;53.232;7.492;2022-10-26T03:03:39;10.30;;;4.00;;
74933;SDS011;63499;53.232;7.492;2022-10-26T03:06:06;10.45;;;4.38;;
74933;SDS011;63499;53.232;7.492;2022-10-26T03:08:32;9.57;;;3.63;;
74933;SDS011;63499;53.232;7.492;2022-10-26T03:11:00;6.22;;;4.43;;
74933;SDS011;63499;53.232;7.492;2022-10-26T03:13:27;8.77;;;3.80;;
74933;SDS011;63499;53.232;7.492;2022-10-26T03:15:54;25.10;;;5.57;;
74933;SDS011;63499;53.232;7.492;2022-10-26T03:18:22;12.48;;;4.50;;
74933;SDS011;63499;53.232;7.492;2022-10-26T03:20:49;6.57;;;3.30;;
74933;SDS011;63499;53.232;7.492;2022-10-26T03:23:15;14.93;;;4.22;;
74933;SDS011;63499;53.232;7.492;2022-10-26T03:25:43;9.40;;;4.03;;
74933;SDS011;63499;53.232;7.492;2022-10-26T03:28:09;9.80;;;3.95;;
74933;SDS011;63499;53.232;7.492;2022-10-26T03:30:36;14.13;;;4.05;;
74933;SDS011;63499;53.232;7.492;2022-10-26T03:33:03;12.27;;;3.45;;
74933;SDS011;63499;53.232;7.492;2022-10-26T03:35:30;12.63;;;4.53;;
74933;SDS011;63499;53.232;7.492;2022-10-26T03:37:57;4.50;;;3.35;;
74933;SDS011;63499;53.232;7.492;2022-10-26T03:40:23;7.22;;;4.00;;
74933;SDS011;63499;53.232;7.492;2022-10-26T03:42:50;26.60;;;6.00;;
74933;SDS011;63499;53.232;7.492;2022-10-26T03:45:16;10.43;;;5.65;;
74933;SDS011;63499;53.232;7.492;2022-10-26T03:47:47;8.32;;;4.75;;
74933;SDS011;63499;53.232;7.492;2022-10-26T03:50:15;7.70;;;4.75;;
74933;SDS011;63499;53.232;7.492;2022-10-26T03:52:42;7.70;;;4.53;;
74933;SDS011;63499;53.232;7.492;2022-10-26T03:55:09;5.07;;;3.92;;
74933;SDS011;63499;53.232;7.492;2022-10-26T03:57:42;6.70;;;4.35;;
74933;SDS011;63499;53.232;7.492;2022-10-26T04:00:15;13.23;;;6.68;;
74933;SDS011;63499;53.232;7.492;2022-10-26T04:02:43;9.57;;;5.65;;
74933;SDS011;63499;53.232;7.492;2022-10-26T04:05:14;9.68;;;6.25;;
74933;SDS011;63499;53.232;7.492;2022-10-26T04:07:41;8.23;;;5.90;;
74933;SDS011;63499;53.232;7.492;2022-10-26T04:10:13;22.27;;;5.45;;
74933;SDS011;63499;53.232;7.492;2022-10-26T04:12:39;84.10;;;7.30;;
74933;SDS011;63499;53.232;7.492;2022-10-26T04:15:06;50.08;;;5.78;;
74933;SDS011;63499;53.232;7.492;2022-10-26T04:17:33;32.63;;;4.63;;
74933;SDS011;63499;53.232;7.492;2022-10-26T04:20:00;17.48;;;3.38;;
74933;SDS011;63499;53.232;7.492;2022-10-26T04:22:26;7.03;;;3.45;;
74933;SDS011;63499;53.232;7.492;2022-10-26T04:24:53;11.00;;;3.10;;
74933;SDS011;63499;53.232;7.492;2022-10-26T04:27:20;8.13;;;3.90;;
74933;SDS011;63499;53.232;7.492;2022-10-26T04:29:54;6.15;;;3.72;;
74933;SDS011;63499;53.232;7.492;2022-10-26T04:32:21;8.60;;;4.07;;
74933;SDS011;63499;53.232;7.492;2022-10-26T04:34:47;6.80;;;3.83;;
74933;SDS011;63499;53.232;7.492;2022-10-26T04:37:14;10.57;;;3.72;;
74933;SDS011;63499;53.232;7.492;2022-10-26T04:39:41;10.60;;;4.10;;
74933;SDS011;63499;53.232;7.492;2022-10-26T04:42:07;10.38;;;4.55;;
74933;SDS011;63499;53.232;7.492;2022-10-26T04:44:34;25.63;;;4.03;;
74933;SDS011;63499;53.232;7.492;2022-10-26T04:47:01;6.25;;;4.22;;
74933;SDS011;63499;53.232;7.492;2022-10-26T04:49:27;23.02;;;6.15;;
74933;SDS011;63499;53.232;7.492;2022-10-26T04:51:54;10.35;;;5.88;;
74933;SDS011;63499;53.232;7.492;2022-10-26T04:54:20;10.68;;;6.18;;
74933;SDS011;63499;53.232;7.492;2022-10-26T04:56:47;8.77;;;6.07;;
74933;SDS011;63499;53.232;7.492;2022-10-26T04:59:13;18.65;;;5.63;;
74933;SDS011;63499;53.232;7.492;2022-10-26T05:01:40;8.15;;;5.38;;
74933;SDS011;63499;53.232;7.492;2022-10-26T05:04:07;10.35;;;4.93;;
74933;SDS011;63499;53.232;7.492;2022-10-26T05:06:34;8.00;;;5.18;;
74933;SDS011;63499;53.232;7.492;2022-10-26T05:09:00;14.38;;;5.93;;
74933;SDS011;63499;53.232;7.492;2022-10-26T05:11:27;9.88;;;5.97;;
74933;SDS011;63499;53.232;7.492;2022-10-26T05:13:55;9.57;;;6.25;;
74933;SDS011;63499;53.232;7.492;2022-10-26T05:16:21;10.73;;;6.93;;
74933;SDS011;63499;53.232;7.492;2022-10-26T05:18:48;13.60;;;8.88;;
74933;SDS011;63499;53.232;7.492;2022-10-26T05:21:18;10.60;;;6.95;;
74933;SDS011;63499;53.232;7.492;2022-10-26T05:23:51;15.10;;;6.65;;
74933;SDS011;63499;53.232;7.492;2022-10-26T05:26:20;48.58;;;7.47;;
74933;SDS011;63499;53.232;7.492;2022-10-26T05:28:48;13.13;;;6.72;;
74933;SDS011;63499;53.232;7.492;2022-10-26T05:31:14;22.23;;;7.35;;
74933;SDS011;63499;53.232;7.492;2022-10-26T05:33:48;20.08;;;8.07;;
74933;SDS011;63499;53.232;7.492;2022-10-26T05:36:21;42.65;;;8.13;;
74933;SDS011;63499;53.232;7.492;2022-10-26T05:38:58;19.25;;;7.40;;
74933;SDS011;63499;53.232;7.492;2022-10-26T05:41:24;11.45;;;7.18;;
74933;SDS011;63499;53.232;7.492;2022-10-26T05:43:51;20.15;;;8.27;;
74933;SDS011;63499;53.232;7.492;2022-10-26T05:46:18;12.25;;;6.78;;
74933;SDS011;63499;53.232;7.492;2022-10-26T05:48:44;27.02;;;9.27;;
74933;SDS011;63499;53.232;7.492;2022-10-26T05:51:11;14.98;;;7.50;;
74933;SDS011;63499;53.232;7.492;2022-10-26T05:53:38;13.07;;;7.95;;
74933;SDS011;63499;53.232;7.492;2022-10-26T05:56:16;21.70;;;8.18;;
74933;SDS011;63499;53.232;7.492;2022-10-26T05:58:44;10.45;;;7.10;;
74933;SDS011;63499;53.232;7.492;2022-10-26T06:03:43;9.70;;;7.43;;
74933;SDS011;63499;53.232;7.492;2022-10-26T06:06:21;10.35;;;5.95;;
74933;SDS011;63499;53.232;7.492;2022-10-26T06:08:48;12.52;;;7.60;;
74933;SDS011;63499;53.232;7.492;2022-10-26T06:11:15;17.55;;;10.35;;
74933;SDS011;63499;53.232;7.492;2022-10-26T06:13:41;9.43;;;6.20;;
74933;SDS011;63499;53.232;7.492;2022-10-26T06:19:05;10.70;;;7.95;;
74933;SDS011;63499;53.232;7.492;2022-10-26T06:24:07;13.23;;;8.77;;
74933;SDS011;63499;53.232;7.492;2022-10-26T06:31:27;13.90;;;7.63;;
74933;SDS011;63499;53.232;7.492;2022-10-26T06:34:02;11.38;;;8.52;;
74933;SDS011;63499;53.232;7.492;2022-10-26T06:36:29;16.77;;;7.43;;
74933;SDS011;63499;53.232;7.492;2022-10-26T06:39:06;17.17;;;8.82;;
74933;SDS011;63499;53.232;7.492;2022-10-26T06:41:34;24.38;;;11.88;;
74933;SDS011;63499;53.232;7.492;2022-10-26T06:44:02;28.30;;;11.47;;
74933;SDS011;63499;53.232;7.492;2022-10-26T06:51:52;23.85;;;12.75;;
74933;SDS011;63499;53.232;7.492;2022-10-26T06:56:51;24.55;;;13.77;;
74933;SDS011;63499;53.232;7.492;2022-10-26T06:59:36;14.98;;;9.57;;
74933;SDS011;63499;53.232;7.492;2022-10-26T07:02:03;16.58;;;9.45;;
74933;SDS011;63499;53.232;7.492;2022-10-26T07:04:31;17.63;;;10.38;;
74933;SDS011;63499;53.232;7.492;2022-10-26T07:06:58;16.40;;;9.20;;
74933;SDS011;63499;53.232;7.492;2022-10-26T08:18:06;17.20;;;12.50;;
74933;SDS011;63499;53.232;7.492;2022-10-26T08:22:59;20.95;;;12.60;;
74933;SDS011;63499;53.232;7.492;2022-10-26T09:22:16;18.23;;;8.55;;
74933;SDS011;63499;53.232;7.492;2022-10-26T09:29:41;14.50;;;8.90;;
74933;SDS011;63499;53.232;7.492;2022-10-26T09:34:47;15.63;;;8.95;;
74933;SDS011;63499;53.232;7.492;2022-10-26T09:39:51;11.57;;;7.13;;
74933;SDS011;63499;53.232;7.492;2022-10-26T09:42:23;10.13;;;6.30;;
74933;SDS011;63499;53.232;7.492;2022-10-26T09:47:38;13.82;;;6.38;;
74933;SDS011;63499;53.232;7.492;2022-10-26T09:52:31;11.70;;;5.22;;
74933;SDS011;63499;53.232;7.492;2022-10-26T09:54:58;9.35;;;5.35;;
74933;SDS011;63499;53.232;7.492;2022-10-26T09:57:25;7.55;;;4.85;;
74933;SDS011;63499;53.232;7.492;2022-10-26T09:59:51;12.40;;;5.88;;
74933;SDS011;63499;53.232;7.492;2022-10-26T10:02:36;8.05;;;4.97;;
74933;SDS011;63499;53.232;7.492;2022-10-26T10:05:23;9.35;;;4.75;;
74933;SDS011;63499;53.232;7.492;2022-10-26T10:07:50;11.30;;;4.65;;
74933;SDS011;63499;53.232;7.492;2022-10-26T10:10:18;8.00;;;4.70;;
74933;SDS011;63499;53.232;7.492;2022-10-26T10:12:45;8.43;;;4.32;;
74933;SDS011;63499;53.232;7.492;2022-10-26T10:15:18;8.60;;;4.50;;
74933;SDS011;63499;53.232;7.492;2022-10-26T10:17:54;9.57;;;4.57;;
74933;SDS011;63499;53.232;7.492;2022-10-26T10:20:29;7.57;;;4.20;;
74933;SDS011;63499;53.232;7.492;2022-10-26T10:23:00;7.97;;;3.72;;
74933;SDS011;63499;53.232;7.492;2022-10-26T10:27:58;5.22;;;3.78;;
74933;SDS011;63499;53.232;7.492;2022-10-26T10:30:29;5.13;;;3.53;;
74933;SDS011;63499;53.232;7.492;2022-10-26T10:33:03;6.13;;;3.15;;
74933;SDS011;63499;53.232;7.492;2022-10-26T10:35:30;8.27;;;3.78;;
74933;SDS011;63499;53.232;7.492;2022-10-26T10:37:57;6.28;;;3.78;;
74933;SDS011;63499;53.232;7.492;2022-10-26T10:40:24;9.40;;;3.97;;
74933;SDS011;63499;53.232;7.492;2022-10-26T10:42:52;8.75;;;3.70;;
74933;SDS011;63499;53.232;7.492;2022-10-26T10:45:22;8.55;;;3.35;;
74933;SDS011;63499;53.232;7.492;2022-10-26T10:50:35;9.48;;;3.28;;
74933;SDS011;63499;53.232;7.492;2022-10-26T10:53:15;7.78;;;3.20;;
74933;SDS011;63499;53.232;7.492;2022-10-26T10:55:51;9.63;;;3.15;;
74933;SDS011;63499;53.232;7.492;2022-10-26T10:58:30;5.65;;;2.80;;
74933;SDS011;63499;53.232;7.492;2022-10-26T11:01:00;6.63;;;3.10;;
74933;SDS011;63499;53.232;7.492;2022-10-26T11:06:17;4.53;;;3.10;;
74933;SDS011;63499;53.232;7.492;2022-10-26T11:08:49;4.38;;;3.05;;
74933;SDS011;63499;53.232;7.492;2022-10-26T11:16:50;5.18;;;3.33;;
74933;SDS011;63499;53.232;7.492;2022-10-26T11:21:45;6.60;;;2.90;;
74933;SDS011;63499;53.232;7.492;2022-10-26T11:26:54;7.85;;;3.33;;
74933;SDS011;63499;53.232;7.492;2022-10-26T11:29:24;5.40;;;2.70;;
74933;SDS011;63499;53.232;7.492;2022-10-26T11:31:58;5.45;;;2.90;;
74933;SDS011;63499;53.232;7.492;2022-10-26T11:37:20;6.03;;;2.53;;
74933;SDS011;63499;53.232;7.492;2022-10-26T11:39:44;4.43;;;2.38;;
74933;SDS011;63499;53.232;7.492;2022-10-26T11:42:22;9.98;;;3.00;;
74933;SDS011;63499;53.232;7.492;2022-10-26T11:45:09;6.03;;;2.65;;
74933;SDS011;63499;53.232;7.492;2022-10-26T11:50:14;6.38;;;2.00;;
74933;SDS011;63499;53.232;7.492;2022-10-26T11:55:28;4.03;;;1.77;;
74933;SDS011;63499;53.232;7.492;2022-10-26T11:57:55;8.02;;;1.73;;
74933;SDS011;63499;53.232;7.492;2022-10-26T12:00:23;3.55;;;1.55;;
74933;SDS011;63499;53.232;7.492;2022-10-26T12:03:06;9.77;;;1.58;;
74933;SDS011;63499;53.232;7.492;2022-10-26T12:08:13;6.50;;;1.83;;
74933;SDS011;63499;53.232;7.492;2022-10-26T12:10:41;2.50;;;1.38;;
74933;SDS011;63499;53.232;7.492;2022-10-26T12:13:21;4.32;;;1.65;;
74933;SDS011;63499;53.232;7.492;2022-10-26T12:15:55;3.33;;;1.63;;
74933;SDS011;63499;53.232;7.492;2022-10-26T12:20:55;7.32;;;1.52;;
74933;SDS011;63499;53.232;7.492;2022-10-26T12:23:33;2.63;;;1.10;;
74933;SDS011;63499;53.232;7.492;2022-10-26T12:34:03;7.00;;;1.38;;
74933;SDS011;63499;53.232;7.492;2022-10-26T12:39:26;8.55;;;1.50;;
74933;SDS011;63499;53.232;7.492;2022-10-26T12:41:55;4.03;;;1.30;;
74933;SDS011;63499;53.232;7.492;2022-10-26T12:46:58;2.95;;;1.35;;
74933;SDS011;63499;53.232;7.492;2022-10-26T12:52:24;8.43;;;1.63;;
74933;SDS011;63499;53.232;7.492;2022-10-26T12:55:00;11.23;;;1.30;;
74933;SDS011;63499;53.232;7.492;2022-10-26T13:00:11;19.05;;;1.77;;
74933;SDS011;63499;53.232;7.492;2022-10-26T13:07:49;5.05;;;1.80;;
74933;SDS011;63499;53.232;7.492;2022-10-26T13:10:17;5.85;;;1.15;;
74933;SDS011;63499;53.232;7.492;2022-10-26T13:18:06;4.28;;;1.70;;
74933;SDS011;63499;53.232;7.492;2022-10-26T13:20:33;4.15;;;1.30;;
74933;SDS011;63499;53.232;7.492;2022-10-26T13:23:23;4.93;;;1.60;;
74933;SDS011;63499;53.232;7.492;2022-10-26T13:28:57;4.05;;;1.77;;
74933;SDS011;63499;53.232;7.492;2022-10-26T13:34:15;4.10;;;1.77;;
74933;SDS011;63499;53.232;7.492;2022-10-26T13:36:58;5.38;;;2.15;;
74933;SDS011;63499;53.232;7.492;2022-10-26T13:39:45;4.63;;;1.85;;
74933;SDS011;63499;53.232;7.492;2022-10-26T13:42:14;4.75;;;1.88;;
74933;SDS011;63499;53.232;7.492;2022-10-26T13:44:46;5.22;;;1.45;;
74933;SDS011;63499;53.232;7.492;2022-10-26T13:49:49;5.18;;;1.92;;
74933;SDS011;63499;53.232;7.492;2022-10-26T13:52:18;7.28;;;2.20;;
74933;SDS011;63499;53.232;7.492;2022-10-26T13:54:50;3.88;;;1.80;;
74933;SDS011;63499;53.232;7.492;2022-10-26T13:57:27;4.82;;;1.80;;
74933;SDS011;63499;53.232;7.492;2022-10-26T13:59:54;7.22;;;2.13;;
74933;SDS011;63499;53.232;7.492;2022-10-26T14:02:23;4.70;;;2.00;;
74933;SDS011;63499;53.232;7.492;2022-10-26T14:04:51;5.20;;;2.17;;
74933;SDS011;63499;53.232;7.492;2022-10-26T14:07:24;5.72;;;2.08;;
74933;SDS011;63499;53.232;7.492;2022-10-26T14:09:52;6.00;;;2.25;;
74933;SDS011;63499;53.232;7.492;2022-10-26T14:12:25;7.22;;;2.60;;
74933;SDS011;63499;53.232;7.492;2022-10-26T14:15:00;7.53;;;2.15;;
74933;SDS011;63499;53.232;7.492;2022-10-26T14:17:28;11.05;;;2.85;;
74933;SDS011;63499;53.232;7.492;2022-10-26T14:19:55;8.45;;;3.38;;
74933;SDS011;63499;53.232;7.492;2022-10-26T14:22:22;7.68;;;2.55;;
74933;SDS011;63499;53.232;7.492;2022-10-26T14:24:55;4.15;;;2.33;;
74933;SDS011;63499;53.232;7.492;2022-10-26T14:27:32;15.02;;;2.67;;
74933;SDS011;63499;53.232;7.492;2022-10-26T14:30:18;16.35;;;2.53;;
74933;SDS011;63499;53.232;7.492;2022-10-26T14:32:46;8.53;;;3.50;;
74933;SDS011;63499;53.232;7.492;2022-10-26T14:35:13;5.85;;;2.55;;
74933;SDS011;63499;53.232;7.492;2022-10-26T14:37:48;5.57;;;2.40;;
74933;SDS011;63499;53.232;7.492;2022-10-26T14:50:19;7.05;;;3.38;;
74933;SDS011;63499;53.232;7.492;2022-10-26T14:52:51;14.18;;;2.85;;
74933;SDS011;63499;53.232;7.492;2022-10-26T14:55:19;19.38;;;2.88;;
74933;SDS011;63499;53.232;7.492;2022-10-26T14:57:47;5.32;;;2.72;;
74933;SDS011;63499;53.232;7.492;2022-10-26T15:00:22;7.95;;;2.53;;
74933;SDS011;63499;53.232;7.492;2022-10-26T15:02:49;6.55;;;3.15;;
74933;SDS011;63499;53.232;7.492;2022-10-26T15:07:50;7.53;;;2.72;;
74933;SDS011;63499;53.232;7.492;2022-10-26T15:13:17;5.70;;;2.60;;
74933;SDS011;63499;53.232;7.492;2022-10-26T15:15:45;7.55;;;3.05;;
74933;SDS011;63499;53.232;7.492;2022-10-26T15:18:17;7.10;;;2.95;;
74933;SDS011;63499;53.232;7.492;2022-10-26T15:20:46;5.53;;;2.50;;
74933;SDS011;63499;53.232;7.492;2022-10-26T15:23:12;10.63;;;3.15;;
74933;SDS011;63499;53.232;7.492;2022-10-26T15:25:39;8.02;;;2.45;;
74933;SDS011;63499;53.232;7.492;2022-10-26T15:33:30;8.88;;;2.80;;
74933;SDS011;63499;53.232;7.492;2022-10-26T15:38:39;9.40;;;2.53;;
74933;SDS011;63499;53.232;7.492;2022-10-26T15:41:20;5.05;;;3.13;;
74933;SDS011;63499;53.232;7.492;2022-10-26T15:43:47;7.53;;;3.00;;
74933;SDS011;63499;53.232;7.492;2022-10-26T15:46:14;4.97;;;2.55;;
74933;SDS011;63499;53.232;7.492;2022-10-26T15:48:41;6.80;;;2.83;;
74933;SDS011;63499;53.232;7.492;2022-10-26T15:51:11;5.22;;;3.55;;
74933;SDS011;63499;53.232;7.492;2022-10-26T15:53:38;5.97;;;2.75;;
74933;SDS011;63499;53.232;7.492;2022-10-26T15:56:11;9.90;;;3.10;;
74933;SDS011;63499;53.232;7.492;2022-10-26T15:58:39;8.05;;;2.67;;
74933;SDS011;63499;53.232;7.492;2022-10-26T16:01:05;6.70;;;3.03;;
74933;SDS011;63499;53.232;7.492;2022-10-26T16:03:32;2.87;;;2.20;;
74933;SDS011;63499;53.232;7.492;2022-10-26T16:06:00;4.25;;;2.65;;
74933;SDS011;63499;53.232;7.492;2022-10-26T16:08:28;7.28;;;3.00;;
74933;SDS011;63499;53.232;7.492;2022-10-26T16:10:55;12.50;;;4.38;;
74933;SDS011;63499;53.232;7.492;2022-10-26T16:13:22;19.17;;;4.50;;
74933;SDS011;63499;53.232;7.492;2022-10-26T16:15:48;12.65;;;3.90;;
74933;SDS011;63499;53.232;7.492;2022-10-26T16:18:15;10.23;;;4.15;;
74933;SDS011;63499;53.232;7.492;2022-10-26T16:20:43;6.45;;;3.05;;
74933;SDS011;63499;53.232;7.492;2022-10-26T16:23:10;6.32;;;2.67;;
74933;SDS011;63499;53.232;7.492;2022-10-26T16:25:41;9.05;;;3.17;;
74933;SDS011;63499;53.232;7.492;2022-10-26T16:28:08;8.40;;;3.42;;
74933;SDS011;63499;53.232;7.492;2022-10-26T16:30:36;9.38;;;3.53;;
74933;SDS011;63499;53.232;7.492;2022-10-26T16:33:02;13.38;;;3.78;;
74933;SDS011;63499;53.232;7.492;2022-10-26T18:15:34;10.18;;;4.80;;
74933;SDS011;63499;53.232;7.492;2022-10-26T18:18:01;6.78;;;3.70;;
74933;SDS011;63499;53.232;7.492;2022-10-26T18:20:28;8.88;;;4.65;;
74933;SDS011;63499;53.232;7.492;2022-10-26T18:22:54;10.23;;;4.90;;
74933;SDS011;63499;53.232;7.492;2022-10-26T18:25:22;7.50;;;4.38;;
74933;SDS011;63499;53.232;7.492;2022-10-26T18:27:49;6.05;;;3.95;;
74933;SDS011;63499;53.232;7.492;2022-10-26T18:30:16;15.82;;;4.32;;
74933;SDS011;63499;53.232;7.492;2022-10-26T18:32:42;12.45;;;4.07;;
74933;SDS011;63499;53.232;7.492;2022-10-26T18:35:09;6.72;;;3.80;;
74933;SDS011;63499;53.232;7.492;2022-10-26T18:37:36;7.28;;;4.90;;
74933;SDS011;63499;53.232;7.492;2022-10-26T18:40:03;9.85;;;4.68;;
74933;SDS011;63499;53.232;7.492;2022-10-26T18:42:30;8.05;;;3.97;;
74933;SDS011;63499;53.232;7.492;2022-10-26T18:44:57;6.10;;;4.25;;
74933;SDS011;63499;53.232;7.492;2022-10-26T18:47:28;11.70;;;4.63;;
74933;SDS011;63499;53.232;7.492;2022-10-26T18:49:55;8.25;;;3.65;;
74933;SDS011;63499;53.232;7.492;2022-10-26T18:52:22;7.28;;;4.13;;
74933;SDS011;63499;53.232;7.492;2022-10-26T18:54:51;8.90;;;4.63;;
74933;SDS011;63499;53.232;7.492;2022-10-26T18:57:18;7.80;;;3.85;;
74933;SDS011;63499;53.232;7.492;2022-10-26T18:59:49;5.68;;;3.90;;
74933;SDS011;63499;53.232;7.492;2022-10-26T19:02:16;7.75;;;4.35;;
74933;SDS011;63499;53.232;7.492;2022-10-26T19:04:43;5.78;;;3.95;;
74933;SDS011;63499;53.232;7.492;2022-10-26T19:07:09;10.43;;;5.72;;
74933;SDS011;63499;53.232;7.492;2022-10-26T19:09:36;15.20;;;5.40;;
